Time;durP1;ratioP1;P1;durP2;ratioP2;P2;SDS_P1;SDS_P2;PMS_P1;PMS_P2;Temp;Humidity;BMP_temperature;BMP_pressure;BME280_temperature;BME280_humidity;BME280_pressure;Samples;Min_cycle;Max_cycle;Signal;HPM_P1;HPM_P2
2022/09/07 00:01:27;;;;;;;2.63;0.60;;;;;;;29.53;18.25;98445.97;5091240;28;20031;-79
2022/09/07 00:03:56;;;;;;;2.75;0.70;;;;;;;29.51;18.38;98444.88;5085432;28;20039;-80
2022/09/07 00:06:23;;;;;;;1.00;0.60;;;;;;;29.05;19.18;98453.03;5082508;28;20040;-79
2022/09/07 00:08:49;;;;;;;1.17;0.57;;;;;;;28.97;19.42;98457.34;5084159;28;20040;-79
2022/09/07 00:11:18;;;;;;;0.95;0.40;;;;;;;29.21;19.13;98455.69;5083862;28;20036;-79
2022/09/07 00:13:46;;;;;;;2.55;1.60;;;;;;;29.51;18.40;98456.19;5084482;28;20381;-79
2022/09/07 00:16:27;;;;;;;1.23;0.40;;;;;;;28.48;19.97;98451.34;5087218;28;20032;-79
2022/09/07 00:18:54;;;;;;;;;;;;;;;28.53;19.92;98453.59;5085705;28;20033;-79
2022/09/07 00:21:20;;;;;;;0.93;0.70;;;;;;;28.50;19.51;98454.50;5087759;28;19916;-79
2022/09/07 00:23:48;;;;;;;1.08;0.40;;;;;;;28.19;19.80;98459.22;5086047;28;20372;-79
2022/09/07 00:26:20;;;;;;;1.33;0.57;;;;;;;28.73;19.13;98454.16;5087082;28;20035;-79
2022/09/07 00:28:47;;;;;;;0.98;0.60;;;;;;;28.05;19.38;98448.38;5083368;28;20429;-79
2022/09/07 00:31:21;;;;;;;1.27;0.40;;;;;;;28.07;19.48;98454.34;5089116;28;20518;-79
2022/09/07 00:33:50;;;;;;;0.98;0.40;;;;;;;28.80;18.70;98443.84;5088760;28;20040;-79
2022/09/07 00:36:17;;;;;;;0.80;0.40;;;;;;;29.11;18.12;98447.53;5089691;28;20028;-79
2022/09/07 00:38:44;;;;;;;2.00;0.60;;;;;;;28.54;18.88;98449.53;5082762;28;20020;-79
2022/09/07 00:41:10;;;;;;;1.85;0.50;;;;;;;28.75;19.37;98450.88;5087577;28;20381;-80
2022/09/07 00:43:43;;;;;;;2.15;0.60;;;;;;;28.97;18.57;98448.06;5077488;28;20037;-79
2022/09/07 00:46:16;;;;;;;1.75;0.60;;;;;;;29.06;18.49;98457.41;5085949;28;20064;-79
2022/09/07 00:48:50;;;;;;;2.13;0.73;;;;;;;29.12;18.33;98449.13;5085573;28;20456;-79
2022/09/07 00:51:36;;;;;;;1.45;0.70;;;;;;;29.56;18.05;98444.28;5086804;28;20032;-79
2022/09/07 00:54:11;;;;;;;1.58;0.60;;;;;;;29.66;17.81;98446.72;5083104;28;20544;-79
2022/09/07 00:56:40;;;;;;;2.25;0.50;;;;;;;29.64;17.79;98449.19;5086099;28;20039;-79
2022/09/07 00:59:09;;;;;;;1.00;0.60;;;;;;;29.77;18.02;98447.09;5082149;28;20028;-79
2022/09/07 01:01:37;;;;;;;1.27;0.40;;;;;;;29.83;18.55;98445.22;5085219;28;20043;-79
2022/09/07 01:04:04;;;;;;;0.65;0.50;;;;;;;29.89;18.28;98451.88;5086404;28;20024;-79
2022/09/07 01:06:36;;;;;;;0.75;0.50;;;;;;;29.85;18.36;98444.78;5085580;28;20414;-79
2022/09/07 01:09:06;;;;;;;0.50;0.30;;;;;;;29.85;18.41;98441.97;5083037;28;20082;-79
2022/09/07 01:11:33;;;;;;;0.65;0.43;;;;;;;29.76;18.67;98450.38;5084560;28;20036;-79
2022/09/07 01:14:02;;;;;;;0.68;0.40;;;;;;;29.71;18.61;98450.97;5083405;28;20202;-79
2022/09/07 01:16:51;;;;;;;0.43;0.30;;;;;;;29.93;18.02;98440.41;5085017;28;20369;-79
2022/09/07 01:19:33;;;;;;;0.75;0.38;;;;;;;30.07;18.17;98434.97;5085418;28;20434;-79
2022/09/07 01:22:17;;;;;;;0.60;0.50;;;;;;;29.53;18.74;98428.22;5083646;28;20036;-79
2022/09/07 01:25:10;;;;;;;0.68;0.50;;;;;;;29.29;19.31;98430.75;5081626;28;20036;-79
2022/09/07 01:28:07;;;;;;;1.55;0.50;;;;;;;29.65;18.50;98422.47;5080581;28;20484;-79
2022/09/07 01:30:40;;;;;;;0.70;0.40;;;;;;;29.90;18.21;98424.34;5083724;28;20480;-79
2022/09/07 01:33:17;;;;;;;0.63;0.40;;;;;;;30.16;17.88;98422.06;5086181;28;20024;-79
2022/09/07 01:36:13;;;;;;;1.70;0.50;;;;;;;30.10;17.70;98421.91;5082298;28;20103;-79
2022/09/07 01:38:55;;;;;;;0.77;0.40;;;;;;;30.14;17.91;98427.41;5083746;28;20059;-79
2022/09/07 01:41:30;;;;;;;0.93;0.63;;;;;;;29.95;18.32;98433.03;5080942;28;20161;-79
2022/09/07 01:44:24;;;;;;;1.45;0.77;;;;;;;29.96;18.15;98420.44;5086344;28;20028;-79
2022/09/07 01:47:23;;;;;;;1.48;0.47;;;;;;;29.50;18.68;98417.84;5083618;28;20089;-79
2022/09/07 01:50:10;;;;;;;2.80;0.50;;;;;;;28.85;19.49;98406.50;5077914;28;20075;-79
2022/09/07 01:52:53;;;;;;;0.55;0.50;;;;;;;29.35;18.79;98411.94;5083988;28;20036;-79
2022/09/07 01:55:19;;;;;;;0.63;0.60;;;;;;;29.56;19.21;98404.66;5088283;28;20024;-77
2022/09/07 01:57:55;;;;;;;0.70;0.60;;;;;;;29.35;19.54;98401.41;5090488;28;20036;-77
2022/09/07 02:00:22;;;;;;;0.73;0.40;;;;;;;29.26;19.73;98394.91;5092175;28;20025;-76
2022/09/07 02:02:54;;;;;;;0.40;0.40;;;;;;;28.91;20.60;98397.00;5085859;28;20434;-77
2022/09/07 02:05:32;;;;;;;1.23;0.55;;;;;;;29.14;19.72;98401.38;5093951;28;20032;-78
2022/09/07 02:08:03;;;;;;;2.03;0.40;;;;;;;29.61;19.16;98395.56;5092580;28;20052;-78
2022/09/07 02:10:40;;;;;;;0.85;0.75;;;;;;;29.76;18.82;98390.94;5085596;28;20032;-78
2022/09/07 02:13:11;;;;;;;0.75;0.40;;;;;;;29.63;19.86;98390.22;5083464;28;20069;-77
2022/09/07 02:16:00;;;;;;;2.22;0.50;;;;;;;29.43;19.82;98387.75;5085916;28;20122;-78
2022/09/07 02:18:35;;;;;;;1.15;0.50;;;;;;;29.56;19.48;98388.47;5080800;28;20649;-77
2022/09/07 02:21:02;;;;;;;0.85;0.50;;;;;;;29.50;19.09;98384.66;5078239;28;20482;-78
2022/09/07 02:23:33;;;;;;;0.50;0.40;;;;;;;29.14;19.23;98390.88;5082725;28;20124;-77
2022/09/07 02:26:03;;;;;;;0.60;0.60;;;;;;;27.94;20.13;98391.44;5080662;28;20048;-78
2022/09/07 02:28:33;;;;;;;0.55;0.40;;;;;;;27.95;20.07;98385.34;5080352;28;20123;-78
2022/09/07 02:31:00;;;;;;;1.60;0.57;;;;;;;27.87;20.07;98378.34;5077586;28;20150;-77
2022/09/07 02:33:27;;;;;;;1.02;0.50;;;;;;;28.26;19.65;98387.59;5080459;28;20066;-78
2022/09/07 02:35:53;;;;;;;0.55;0.38;;;;;;;28.54;19.33;98378.13;5084069;28;20107;-77
2022/09/07 02:38:20;;;;;;;1.60;0.40;;;;;;;28.19;19.28;98382.19;5094053;28;20107;-77
2022/09/07 02:40:56;;;;;;;1.15;0.43;;;;;;;27.92;19.52;98383.41;5091927;28;20035;-77
2022/09/07 02:43:23;;;;;;;0.82;0.50;;;;;;;27.73;20.01;98380.81;5084397;28;20039;-77
2022/09/07 02:46:10;;;;;;;0.70;0.60;;;;;;;27.60;19.83;98375.19;5091232;28;20572;-78
2022/09/07 02:48:52;;;;;;;0.40;0.30;;;;;;;27.79;19.93;98384.69;5086358;28;20395;-77
2022/09/07 02:51:38;;;;;;;0.82;0.50;;;;;;;26.10;21.72;98384.66;5081854;28;20090;-77
2022/09/07 02:54:39;;;;;;;1.20;0.57;;;;;;;26.00;22.10;98394.13;5080891;28;20044;-77
2022/09/07 02:57:11;;;;;;;;;;;;;;;25.06;23.11;98392.25;5060103;28;20052;-77
2022/09/07 03:00:03;;;;;;;1.42;0.63;;;;;;;25.53;22.59;98393.66;5085847;28;20391;-77
2022/09/07 03:02:43;;;;;;;2.00;0.95;;;;;;;24.53;23.92;98393.25;5080537;28;20051;-79
2022/09/07 03:05:09;;;;;;;1.33;0.75;;;;;;;25.34;22.94;98386.78;5077265;28;20036;-78
2022/09/07 03:07:47;;;;;;;1.23;0.70;;;;;;;25.64;22.65;98390.59;5079708;28;20089;-77
2022/09/07 03:10:14;;;;;;;1.30;0.63;;;;;;;25.39;23.39;98388.31;5078541;28;20469;-77
2022/09/07 03:12:46;;;;;;;1.33;0.60;;;;;;;26.30;21.96;98378.94;5083327;28;20111;-77
2022/09/07 03:15:15;;;;;;;1.02;0.60;;;;;;;26.80;21.20;98384.03;5077404;28;20503;-77
2022/09/07 03:17:43;;;;;;;0.77;0.60;;;;;;;25.91;22.26;98377.88;5077344;28;21160;-77
2022/09/07 03:20:09;;;;;;;1.38;0.52;;;;;;;26.51;21.63;98384.78;5082078;28;20148;-77
2022/09/07 03:22:35;;;;;;;0.80;0.68;;;;;;;24.62;23.94;98385.88;5080478;28;20051;-77
2022/09/07 03:25:03;;;;;;;0.98;0.82;;;;;;;24.42;24.09;98389.88;5079584;28;20099;-77
2022/09/07 03:27:30;;;;;;;0.88;0.60;;;;;;;24.72;24.22;98395.31;5077539;28;20032;-77
2022/09/07 03:29:57;;;;;;;1.65;0.93;;;;;;;26.13;21.64;98391.44;5080400;28;20556;-77
2022/09/07 03:32:23;;;;;;;0.75;0.60;;;;;;;26.66;21.23;98388.00;5081485;28;20386;-77
2022/09/07 03:34:50;;;;;;;1.58;0.75;;;;;;;26.52;21.71;98385.56;5076287;28;20145;-77
2022/09/07 03:37:16;;;;;;;1.38;0.70;;;;;;;26.17;21.97;98389.31;5076788;28;20043;-77
2022/09/07 03:39:42;;;;;;;1.60;0.70;;;;;;;26.63;21.06;98384.03;5078203;28;20028;-77
2022/09/07 03:42:08;;;;;;;2.75;0.70;;;;;;;27.46;20.25;98384.09;5086680;28;20032;-77
2022/09/07 03:44:34;;;;;;;3.30;0.75;;;;;;;28.12;19.64;98382.41;5079787;28;20028;-77
2022/09/07 03:47:00;;;;;;;1.27;0.63;;;;;;;27.71;19.55;98383.31;5079637;28;20036;-77
2022/09/07 03:49:26;;;;;;;0.85;0.52;;;;;;;27.18;20.16;98384.94;5076217;28;20042;-77
2022/09/07 03:51:52;;;;;;;1.05;0.52;;;;;;;25.66;21.79;98388.94;5077354;28;20046;-77
2022/09/07 03:54:18;;;;;;;1.40;0.70;;;;;;;25.10;22.55;98393.75;5078201;28;20173;-77
2022/09/07 03:56:44;;;;;;;1.38;0.70;;;;;;;25.76;21.59;98389.91;5078429;28;20445;-79
2022/09/07 03:59:10;;;;;;;3.00;0.85;;;;;;;25.79;21.84;98386.22;5078547;28;20051;-77
2022/09/07 04:01:36;;;;;;;1.25;0.75;;;;;;;26.26;20.78;98384.66;5085410;28;20388;-77
2022/09/07 04:04:02;;;;;;;1.45;0.85;;;;;;;27.22;20.20;98392.03;5086072;28;20134;-77
2022/09/07 04:06:29;;;;;;;0.75;0.50;;;;;;;27.97;19.13;98399.00;5086654;28;20484;-77
2022/09/07 04:08:56;;;;;;;1.17;0.60;;;;;;;28.58;18.48;98396.53;5084913;28;20034;-77
2022/09/07 04:11:22;;;;;;;1.65;0.95;;;;;;;28.92;18.32;98401.38;5086724;28;20043;-77
2022/09/07 04:13:48;;;;;;;1.02;0.40;;;;;;;28.70;18.16;98406.25;5081545;28;20060;-77
2022/09/07 04:16:18;;;;;;;2.58;0.63;;;;;;;28.74;18.29;98402.03;5083663;28;20028;-76
2022/09/07 04:18:45;;;;;;;0.70;0.50;;;;;;;28.73;18.29;98399.66;5078953;28;20480;-77
2022/09/07 04:21:12;;;;;;;3.80;0.63;;;;;;;28.55;18.54;98400.25;5083250;28;20071;-77
2022/09/07 04:23:40;;;;;;;1.45;0.60;;;;;;;28.31;18.66;98403.97;5078710;28;20131;-77
2022/09/07 04:26:11;;;;;;;1.05;0.55;;;;;;;28.54;18.50;98393.03;5082285;28;20067;-77
2022/09/07 04:28:37;;;;;;;1.35;0.70;;;;;;;28.93;18.08;98408.63;5085519;28;20498;-76
2022/09/07 04:31:03;;;;;;;1.25;0.57;;;;;;;29.25;17.82;98413.13;5081943;28;20040;-76
2022/09/07 04:33:31;;;;;;;1.77;0.68;;;;;;;29.38;17.65;98417.44;5084838;28;20433;-77
2022/09/07 04:35:59;;;;;;;0.57;0.50;;;;;;;29.31;17.55;98423.38;5081083;28;20066;-76
2022/09/07 04:38:26;;;;;;;1.00;0.70;;;;;;;29.18;18.17;98408.53;5084650;28;20028;-77
2022/09/07 04:41:10;;;;;;;0.82;0.60;;;;;;;28.67;18.67;98413.59;5081824;28;20042;-78
2022/09/07 04:43:38;;;;;;;1.05;0.50;;;;;;;28.15;19.33;98416.16;5081854;28;20060;-76
2022/09/07 04:46:17;;;;;;;0.88;0.50;;;;;;;27.93;19.73;98418.88;5091754;28;20538;-76
2022/09/07 04:48:43;;;;;;;0.73;0.40;;;;;;;28.03;19.36;98414.94;5091815;28;20425;-76
2022/09/07 04:51:10;;;;;;;1.13;0.75;;;;;;;28.35;18.74;98415.91;5093760;28;20044;-76
2022/09/07 04:53:37;;;;;;;1.55;0.63;;;;;;;28.40;18.93;98409.69;5093862;28;20035;-77
2022/09/07 04:56:04;;;;;;;0.52;0.52;;;;;;;28.37;19.02;98404.94;5093873;28;20114;-76
2022/09/07 04:58:30;;;;;;;0.82;0.43;;;;;;;28.25;19.53;98398.09;5093447;28;20065;-77
2022/09/07 05:01:01;;;;;;;0.60;0.50;;;;;;;28.34;19.37;98397.38;5080434;28;20039;-77
2022/09/07 05:03:29;;;;;;;1.10;0.63;;;;;;;28.55;19.38;98394.63;5078010;28;20036;-76
2022/09/07 05:05:55;;;;;;;1.02;0.50;;;;;;;28.45;19.10;98395.00;5093555;28;20024;-77
2022/09/07 05:08:21;;;;;;;2.22;0.60;;;;;;;28.52;19.15;98395.50;5094004;28;20024;-77
2022/09/07 05:10:51;;;;;;;0.70;0.40;;;;;;;28.16;20.20;98388.72;5093605;28;20032;-77
2022/09/07 05:13:18;;;;;;;1.20;0.55;;;;;;;27.26;21.91;98395.53;5091214;28;20029;-76
2022/09/07 05:15:44;;;;;;;0.68;0.50;;;;;;;27.71;21.83;98398.22;5071838;28;20037;-76
2022/09/07 05:18:11;;;;;;;0.75;0.60;;;;;;;28.06;20.20;98402.75;5086291;28;20032;-76
2022/09/07 05:20:37;;;;;;;1.23;0.52;;;;;;;28.99;19.89;98397.50;5093564;28;20090;-76
2022/09/07 05:23:03;;;;;;;1.08;0.68;;;;;;;29.85;18.30;98403.09;5091943;28;20123;-76
2022/09/07 05:25:30;;;;;;;1.13;0.80;;;;;;;30.38;18.25;98405.78;5092548;28;20067;-76
2022/09/07 05:27:56;;;;;;;1.77;0.70;;;;;;;29.72;18.54;98402.38;5093814;28;20380;-76
2022/09/07 05:30:22;;;;;;;2.80;0.90;;;;;;;29.01;19.81;98392.19;5093216;28;20036;-76
2022/09/07 05:32:49;;;;;;;2.45;0.65;;;;;;;29.29;19.60;98400.41;5091581;28;20031;-76
2022/09/07 05:35:15;;;;;;;1.35;1.00;;;;;;;29.33;19.81;98401.09;5078064;28;20040;-77
2022/09/07 05:37:41;;;;;;;1.83;0.77;;;;;;;29.52;19.54;98396.31;5071910;28;20426;-76
2022/09/07 05:40:08;;;;;;;2.38;0.70;;;;;;;29.40;19.16;98389.50;5075382;28;20033;-77
2022/09/07 05:42:37;;;;;;;1.92;0.77;;;;;;;28.36;20.81;98395.69;5093270;28;20115;-77
2022/09/07 05:45:04;;;;;;;3.72;0.90;;;;;;;27.72;22.01;98408.28;5077400;28;20043;-76
2022/09/07 05:47:31;;;;;;;2.28;0.80;;;;;;;27.92;21.31;98399.56;5073142;28;20037;-76
2022/09/07 05:49:57;;;;;;;9.73;1.35;;;;;;;27.60;20.95;98400.59;5079840;28;20040;-76
2022/09/07 05:52:23;;;;;;;2.63;1.08;;;;;;;28.43;21.03;98403.13;5087891;28;20040;-76
2022/09/07 05:54:50;;;;;;;2.22;1.00;;;;;;;28.33;20.64;98405.09;5093160;28;20032;-76
2022/09/07 05:57:16;;;;;;;1.65;0.90;;;;;;;29.09;20.61;98396.31;5093121;28;20028;-76
2022/09/07 05:59:42;;;;;;;1.15;0.90;;;;;;;28.20;20.81;98395.84;5091907;28;20028;-76
2022/09/07 06:02:13;;;;;;;1.67;0.90;;;;;;;28.64;20.60;98402.41;5092946;28;20553;-76
2022/09/07 06:04:40;;;;;;;2.08;0.80;;;;;;;29.21;20.61;98403.97;5093407;28;20364;-77
2022/09/07 06:07:07;;;;;;;2.20;0.90;;;;;;;29.80;20.15;98397.25;5093137;28;20077;-77
2022/09/07 06:09:33;;;;;;;1.90;0.80;;;;;;;29.78;19.82;98394.13;5091910;28;20032;-76
2022/09/07 06:11:59;;;;;;;1.95;0.93;;;;;;;29.60;19.48;98405.28;5092897;28;20487;-77
2022/09/07 06:14:25;;;;;;;4.20;1.30;;;;;;;28.51;20.83;98405.25;5091642;28;20036;-76
2022/09/07 06:16:51;;;;;;;2.35;0.80;;;;;;;29.12;21.01;98410.34;5091184;28;20055;-77
2022/09/07 06:19:18;;;;;;;2.72;1.40;;;;;;;30.24;19.63;98407.16;5091982;28;20050;-77
2022/09/07 06:21:44;;;;;;;2.22;1.58;;;;;;;29.26;21.04;98397.72;5092868;28;20028;-77
2022/09/07 06:24:10;;;;;;;2.40;1.83;;;;;;;28.65;21.28;98404.00;5092886;28;20036;-77
2022/09/07 06:26:36;;;;;;;1.63;1.00;;;;;;;29.52;21.16;98393.50;5074834;28;20032;-77
2022/09/07 06:29:02;;;;;;;2.97;1.20;;;;;;;30.39;20.08;98387.53;5072532;28;20068;-76
2022/09/07 06:31:28;;;;;;;0.88;0.82;;;;;;;31.10;19.35;98396.56;5079855;28;20028;-77
2022/09/07 06:33:55;;;;;;;1.55;1.10;;;;;;;31.09;19.41;98390.09;5091701;28;20070;-77
2022/09/07 06:36:24;;;;;;;5.22;1.35;;;;;;;31.02;19.81;98395.28;5085527;28;20032;-77
2022/09/07 06:38:50;;;;;;;3.80;1.27;;;;;;;29.81;20.90;98387.50;5076189;28;20033;-77
2022/09/07 06:41:22;;;;;;;1.85;1.35;;;;;;;30.27;20.38;98382.78;5076154;28;20040;-77
2022/09/07 06:43:49;;;;;;;2.25;1.20;;;;;;;31.27;19.32;98389.28;5077721;28;20527;-77
2022/09/07 06:46:16;;;;;;;6.57;1.20;;;;;;;30.53;19.71;98398.25;5088876;28;20077;-77
2022/09/07 06:48:42;;;;;;;1.80;1.30;;;;;;;31.27;20.55;98394.97;5095110;28;20051;-77
2022/09/07 06:51:19;;;;;;;2.55;1.00;;;;;;;30.42;19.79;98398.72;5090029;28;20041;-77
2022/09/07 06:53:47;;;;;;;4.20;1.55;;;;;;;29.31;21.66;98394.31;5075912;28;20536;-77
2022/09/07 06:56:15;;;;;;;2.42;1.20;;;;;;;29.62;22.29;98395.09;5075976;28;20435;-77
2022/09/07 06:58:42;;;;;;;2.15;1.35;;;;;;;29.20;21.46;98396.72;5090078;28;20048;-77
2022/09/07 07:01:13;;;;;;;2.67;1.17;;;;;;;29.45;22.54;98396.59;5075787;28;20060;-78
2022/09/07 07:03:39;;;;;;;3.10;1.42;;;;;;;30.14;21.26;98388.56;5084860;28;20517;-77
2022/09/07 07:06:06;;;;;;;3.70;1.15;;;;;;;28.50;22.66;98391.56;5094796;28;20025;-77
2022/09/07 07:08:32;;;;;;;2.03;1.10;;;;;;;28.37;22.53;98397.28;5094636;28;20082;-77
2022/09/07 07:11:06;;;;;;;2.72;1.30;;;;;;;29.66;22.06;98392.94;5095739;28;20035;-78
2022/09/07 07:13:34;;;;;;;4.00;1.35;;;;;;;29.53;22.47;98394.25;5095956;28;20036;-77
2022/09/07 07:16:05;;;;;;;3.65;1.80;;;;;;;28.07;25.31;98403.53;5090998;28;20029;-77
2022/09/07 07:18:32;;;;;;;2.45;1.13;;;;;;;29.17;23.24;98397.66;5094124;28;20032;-78
2022/09/07 07:21:00;;;;;;;2.35;1.23;;;;;;;29.80;22.51;98395.19;5092551;28;20598;-78
2022/09/07 07:23:26;;;;;;;4.05;1.70;;;;;;;29.65;22.74;98394.16;5095485;28;20024;-77
2022/09/07 07:25:52;;;;;;;1.85;1.10;;;;;;;29.89;21.90;98388.81;5095230;28;20047;-77
2022/09/07 07:28:21;;;;;;;3.45;1.20;;;;;;;30.55;21.88;98395.75;5095488;28;20384;-77
2022/09/07 07:30:47;;;;;;;3.10;1.45;;;;;;;31.05;21.33;98394.34;5095465;28;20032;-78
2022/09/07 07:33:13;;;;;;;4.32;1.58;;;;;;;31.22;20.81;98393.56;5088073;28;20380;-77
2022/09/07 07:35:39;;;;;;;2.80;1.70;;;;;;;31.03;22.16;98396.88;5074829;28;20445;-78
2022/09/07 07:38:05;;;;;;;3.42;1.70;;;;;;;31.71;20.46;98398.16;5075435;28;20032;-78
2022/09/07 07:40:31;;;;;;;3.03;1.70;;;;;;;32.27;20.72;98403.13;5088222;28;20055;-77
2022/09/07 07:42:57;;;;;;;2.45;1.33;;;;;;;31.96;20.56;98390.03;5074964;28;20045;-78
2022/09/07 07:45:23;;;;;;;3.65;1.88;;;;;;;30.41;22.25;98391.47;5076408;28;20033;-77
2022/09/07 07:47:50;;;;;;;2.70;1.63;;;;;;;31.08;22.04;98388.53;5094062;28;20474;-77
2022/09/07 07:50:16;;;;;;;3.00;1.52;;;;;;;32.00;20.74;98395.53;5086646;28;20036;-78
2022/09/07 07:52:42;;;;;;;2.10;1.30;;;;;;;32.91;19.46;98383.59;5074769;28;20032;-78
2022/09/07 07:55:08;;;;;;;3.63;1.25;;;;;;;32.07;20.14;98384.63;5074443;28;20041;-78
2022/09/07 07:57:34;;;;;;;2.63;1.35;;;;;;;33.35;19.19;98387.31;5090901;28;20028;-78
2022/09/07 08:00:01;;;;;;;3.30;1.35;;;;;;;32.65;20.40;98394.72;5095036;28;20433;-78
2022/09/07 08:02:27;;;;;;;4.15;1.73;;;;;;;31.61;21.32;98390.94;5095031;28;20070;-78
2022/09/07 08:04:53;;;;;;;3.63;1.55;;;;;;;31.14;22.81;98383.78;5089800;28;20399;-78
2022/09/07 08:07:19;;;;;;;1.63;1.20;;;;;;;31.66;21.35;98388.25;5083554;28;20037;-78
2022/09/07 08:09:46;;;;;;;3.50;1.50;;;;;;;32.49;20.67;98383.72;5074148;28;20412;-78
2022/09/07 08:12:18;;;;;;;1.95;1.15;;;;;;;33.29;20.06;98384.34;5074506;28;20032;-78
2022/09/07 08:14:46;;;;;;;2.95;1.52;;;;;;;33.56;19.82;98388.22;5091737;28;20044;-78
2022/09/07 08:17:14;;;;;;;2.75;1.45;;;;;;;32.82;21.00;98381.59;5094503;28;20024;-78
2022/09/07 08:19:40;;;;;;;2.38;1.30;;;;;;;32.59;21.18;98388.09;5093519;28;20483;-78
2022/09/07 08:22:08;;;;;;;3.40;1.50;;;;;;;31.56;22.56;98383.06;5093656;28;20035;-78
2022/09/07 08:24:34;;;;;;;4.35;2.25;;;;;;;31.14;22.79;98385.81;5084567;28;20033;-78
2022/09/07 08:27:01;;;;;;;1.85;1.40;;;;;;;32.02;22.07;98382.44;5074136;28;20033;-78
2022/09/07 08:29:27;;;;;;;2.80;1.85;;;;;;;32.38;21.42;98387.13;5073919;28;20090;-78
2022/09/07 08:31:53;;;;;;;4.18;2.20;;;;;;;31.54;22.20;98379.94;5092716;28;20514;-78
2022/09/07 08:34:20;;;;;;;2.22;1.80;;;;;;;31.61;22.87;98374.69;5086231;28;20103;-78
2022/09/07 08:36:46;;;;;;;2.38;1.67;;;;;;;32.82;21.20;98364.53;5083055;28;20036;-78
2022/09/07 08:39:12;;;;;;;3.00;1.65;;;;;;;33.71;20.55;98366.19;5091573;28;20032;-78
2022/09/07 08:41:56;;;;;;;3.00;2.17;;;;;;;31.75;22.64;98374.00;5074633;28;20037;-78
2022/09/07 08:44:57;;;;;;;2.92;1.92;;;;;;;31.42;23.06;98370.31;5073514;28;20407;-78
2022/09/07 08:47:42;;;;;;;5.18;2.00;;;;;;;31.89;22.80;98361.97;5079846;28;20024;-78
2022/09/07 08:50:37;;;;;;;3.22;1.52;;;;;;;32.68;21.81;98360.38;5093856;28;20538;-79
2022/09/07 08:53:15;;;;;;;2.78;1.98;;;;;;;32.38;22.42;98360.75;5091697;28;20020;-78
2022/09/07 08:55:53;;;;;;;2.53;1.73;;;;;;;33.12;21.37;98345.47;5093884;28;20428;-78
2022/09/07 08:58:36;;;;;;;3.42;1.83;;;;;;;33.39;20.35;98345.97;5085913;28;20040;-78
2022/09/07 09:01:16;;;;;;;2.70;1.73;;;;;;;31.94;22.06;98340.63;5073424;28;20107;-78
2022/09/07 09:03:43;;;;;;;2.90;1.73;;;;;;;31.77;21.83;98340.25;5074038;28;20082;-78
2022/09/07 09:06:19;;;;;;;5.80;1.90;;;;;;;32.28;22.30;98330.84;5093361;28;20585;-78
2022/09/07 09:09:03;;;;;;;2.95;1.60;;;;;;;32.99;21.67;98325.81;5092072;28;20036;-78
2022/09/07 09:11:32;;;;;;;3.28;1.98;;;;;;;33.31;21.25;98326.91;5093416;28;20119;-78
2022/09/07 09:14:09;;;;;;;5.72;2.85;;;;;;;31.06;22.82;98337.16;5093380;28;20387;-78
2022/09/07 09:16:44;;;;;;;3.25;2.13;;;;;;;32.42;21.45;98328.00;5092613;28;20028;-78
2022/09/07 09:19:31;;;;;;;2.70;1.80;;;;;;;33.31;20.46;98318.38;5093539;28;20032;-78
2022/09/07 09:22:17;;;;;;;5.97;2.03;;;;;;;32.98;21.02;98332.00;5093090;28;20560;-78
2022/09/07 09:24:48;;;;;;;4.88;1.77;;;;;;;30.66;22.99;98328.03;5093300;28;20028;-78
2022/09/07 09:27:14;;;;;;;2.72;2.00;;;;;;;29.72;24.80;98333.66;5093348;28;20024;-78
2022/09/07 09:29:41;;;;;;;6.80;2.25;;;;;;;29.31;25.09;98337.75;5076398;28;20033;-78
2022/09/07 09:32:33;;;;;;;2.50;1.55;;;;;;;29.90;23.67;98343.03;5073717;28;20047;-78
2022/09/07 09:35:22;;;;;;;1.85;1.40;;;;;;;32.59;21.03;98334.06;5084843;28;20062;-78
2022/09/07 09:37:48;;;;;;;2.78;1.58;;;;;;;33.45;19.71;98328.97;5079968;28;20032;-78
2022/09/07 09:40:21;;;;;;;3.42;2.03;;;;;;;32.90;20.39;98333.66;5092114;28;20368;-78
2022/09/07 09:42:57;;;;;;;4.22;1.98;;;;;;;32.14;20.89;98323.03;5093141;28;20550;-78
2022/09/07 09:45:27;;;;;;;4.60;1.98;;;;;;;32.64;20.50;98324.88;5093133;28;20036;-78
2022/09/07 09:47:54;;;;;;;2.00;1.77;;;;;;;33.05;20.33;98320.25;5093073;28;20032;-78
2022/09/07 09:50:28;;;;;;;4.53;2.05;;;;;;;31.80;21.78;98324.28;5076737;28;20348;-78
2022/09/07 09:52:55;;;;;;;8.50;1.52;;;;;;;32.80;21.67;98317.94;5072826;28;20452;-78
2022/09/07 09:55:30;;;;;;;2.90;1.45;;;;;;;33.81;19.58;98317.16;5077264;28;20395;-78
2022/09/07 09:58:02;;;;;;;2.08;1.20;;;;;;;34.13;20.40;98318.13;5092965;28;20028;-78
2022/09/07 10:00:30;;;;;;;5.22;1.70;;;;;;;31.93;22.75;98324.84;5093141;28;20032;-78
2022/09/07 10:03:12;;;;;;;1.92;1.45;;;;;;;33.30;22.00;98314.72;5092964;28;20028;-78
2022/09/07 10:05:43;;;;;;;1.95;1.58;;;;;;;33.19;21.04;98308.06;5089607;28;20036;-78
2022/09/07 10:08:28;;;;;;;1.77;1.60;;;;;;;34.51;20.27;98302.81;5073023;28;20041;-78
2022/09/07 10:10:55;;;;;;;2.95;1.42;;;;;;;33.92;20.38;98314.47;5074273;28;20033;-78
2022/09/07 10:13:34;;;;;;;3.17;1.40;;;;;;;33.92;20.70;98307.97;5091641;28;20036;-79
2022/09/07 10:16:06;;;;;;;2.22;1.30;;;;;;;34.36;19.78;98311.44;5097021;28;20036;-79
2022/09/07 10:18:38;;;;;;;2.63;1.50;;;;;;;34.94;19.87;98301.75;5096780;28;20039;-79
2022/09/07 10:21:12;;;;;;;3.30;1.88;;;;;;;34.16;19.33;98304.97;5096726;28;20067;-79
2022/09/07 10:23:38;;;;;;;3.33;2.10;;;;;;;32.27;22.33;98298.78;5095796;28;20036;-79
2022/09/07 10:26:25;;;;;;;2.20;1.60;;;;;;;33.53;20.73;98303.75;5095256;28;20036;-79
2022/09/07 10:29:18;;;;;;;3.45;2.25;;;;;;;32.52;22.02;98294.66;5095667;28;20107;-79
2022/09/07 10:32:22;;;;;;;3.25;2.00;;;;;;;34.09;21.65;98303.31;5095491;28;20042;-81
2022/09/07 10:35:07;;;;;;;5.25;2.17;;;;;;;32.63;21.46;98306.22;5093540;28;20044;-81
2022/09/07 10:37:39;;;;;;;3.25;1.90;;;;;;;31.47;24.12;98303.63;5093316;28;20041;-81
2022/09/07 10:40:16;;;;;;;3.22;1.80;;;;;;;32.80;21.81;98307.34;5091722;28;20047;-81
2022/09/07 10:42:55;;;;;;;1.83;1.48;;;;;;;33.71;21.44;98301.44;5079993;28;20037;-81
2022/09/07 10:45:34;;;;;;;4.68;2.35;;;;;;;31.52;22.65;98300.13;5096005;28;20040;-80
2022/09/07 10:48:09;;;;;;;5.00;2.13;;;;;;;31.73;23.39;98301.94;5096519;28;20032;-81
2022/09/07 10:50:54;;;;;;;2.63;2.00;;;;;;;32.89;22.03;98290.19;5095023;28;20048;-81
2022/09/07 10:53:45;;;;;;;3.25;1.92;;;;;;;33.74;21.76;98289.06;5096222;28;20040;-81
2022/09/07 10:56:29;;;;;;;2.92;1.45;;;;;;;33.41;22.49;98282.84;5089333;28;20025;-81
2022/09/07 10:59:24;;;;;;;2.22;1.83;;;;;;;32.99;22.03;98282.34;5084304;28;20046;-81
2022/09/07 11:02:00;;;;;;;3.67;1.90;;;;;;;33.08;23.04;98288.75;5085217;28;20084;-82
2022/09/07 11:04:45;;;;;;;5.18;2.72;;;;;;;32.16;22.97;98287.16;5091710;28;20028;-82
2022/09/07 11:07:29;;;;;;;3.13;1.77;;;;;;;33.36;21.57;98286.38;5085411;28;20039;-82
2022/09/07 11:10:05;;;;;;;2.65;2.00;;;;;;;34.05;20.83;98288.50;5085240;28;20039;-81
2022/09/07 11:12:36;;;;;;;4.07;2.47;;;;;;;33.52;21.41;98288.69;5086969;28;20031;-82
2022/09/07 11:15:09;;;;;;;2.95;1.70;;;;;;;34.95;21.06;98291.13;5088873;28;20518;-83
2022/09/07 11:17:48;;;;;;;4.00;2.08;;;;;;;33.00;22.01;98292.47;5087378;28;20086;-81
2022/09/07 11:20:27;;;;;;;2.70;1.92;;;;;;;33.18;22.56;98293.06;5088369;28;20031;-81
2022/09/07 11:22:53;;;;;;;2.83;2.00;;;;;;;34.02;20.55;98290.25;5090810;28;20379;-81
2022/09/07 11:25:23;;;;;;;4.60;2.58;;;;;;;32.55;23.04;98291.63;5086290;28;20030;-82
2022/09/07 11:28:02;;;;;;;3.88;2.50;;;;;;;31.31;24.02;98290.59;5090834;28;20024;-81
2022/09/07 11:30:56;;;;;;;3.70;2.00;;;;;;;30.95;24.71;98291.47;5084762;28;20033;-81
2022/09/07 11:33:30;;;;;;;3.53;2.40;;;;;;;32.10;23.68;98286.25;5088799;28;20035;-82
2022/09/07 11:36:01;;;;;;;3.78;2.60;;;;;;;32.57;22.59;98286.25;5086848;28;20115;-81
2022/09/07 11:38:27;;;;;;;3.97;2.50;;;;;;;33.26;22.45;98291.38;5089879;28;20020;-81
2022/09/07 11:41:11;;;;;;;3.85;2.13;;;;;;;34.32;22.12;98279.53;5086038;28;20036;-82
2022/09/07 11:43:59;;;;;;;5.20;1.90;;;;;;;33.63;22.49;98288.88;5085798;28;20032;-82
2022/09/07 11:46:48;;;;;;;4.22;2.70;;;;;;;32.79;22.18;98285.88;5089668;28;20024;-83
2022/09/07 11:49:24;;;;;;;3.63;2.50;;;;;;;33.19;22.49;98277.56;5081412;28;20047;-81
2022/09/07 11:52:20;;;;;;;5.10;2.70;;;;;;;32.46;23.47;98271.78;5088997;28;20040;-81
2022/09/07 11:55:01;;;;;;;3.72;3.05;;;;;;;32.82;22.25;98273.50;5085629;28;20028;-82
2022/09/07 11:57:42;;;;;;;2.75;2.20;;;;;;;32.69;22.71;98273.81;5089522;28;20024;-80